• Join FlightAware (Why Join?)
  • Login
  • US Flag 
04:57PM EDT


 

Airport Tracker/Info


-or-


 

Live Flight TrackerFlight Track Log ✈ N212EA ✈ 12-May-2013 ✈ KVRB - KCDW

Flight Track Log - Related Links

Times and Time Zones

All times are in EDT time to prevent confusion due to time zone crossing. See the N212EA flight status page for this flight to view local times or setup timezone preferences in your user account.

Time Position Orientation Groundspeed Altitude Reporting Facility
EDT Latitude Longitude Course Direction KTS MPH feet Rate Location/Type
12:31PM 27.6422 -80.4433 41° Northeast 358 412 800  Level Miami Center
12:32PM 27.6622 -80.4744 306° West 152 175 2,000 1,200 Climbing Miami Center
12:33PM 27.7317 -80.4533 15° North 166 191 3,200 1,620 Climbing Miami Center
12:34PM 27.7847 -80.4197 29° Northeast 185 213 5,300 1,920 Climbing Miami Center
12:35PM 27.8278 -80.3717 45° Northeast 206 237 7,500 1,860 Climbing Miami Center
12:36PM 28.0744 -79.9756 41° Northeast  Level FlightAware Approximate
12:36PM 27.8747 -80.3239 42° Northeast 201 231 9,400  Level Miami Center
12:37PM 27.9156 -80.2758 46° Northeast 201 231 11,300 1,680 Climbing Miami Center
12:38PM 27.9583 -80.2300 43° Northeast 201 231 12,800 1,380 Climbing Miami Center
12:39PM 28.0033 -80.1819 43° Northeast 201 231 14,100 1,380 Climbing Miami Center
12:40PM 28.0483 -80.1317 45° Northeast 206 237 15,600 1,380 Climbing Miami Center
12:41PM 28.0933 -80.0836 43° Northeast 212 244 16,900 1,200 Climbing Miami Center
12:42PM 28.1403 -80.0306 45° Northeast 222 255 18,000 1,140 Climbing Miami Center
12:43PM 28.1875 -79.9825 42° Northeast 222 255 19,200 1,020 Climbing Miami Center
12:44PM 28.2322 -79.9367 42° Northeast 227 261 20,100 960 Climbing Miami Center
12:45PM 28.2836 -79.8744 47° Northeast 227 261 21,200 960 Climbing Miami Center
12:46PM 28.3347 -79.8192 44° Northeast 234 269 22,100 900 Climbing Miami Center
12:47PM 28.3919 -79.7758 34° Northeast 239 275 23,100 960 Climbing Miami Center
12:48PM 28.4614 -79.7586 12° North 245 282 24,100 960 Climbing Miami Center
12:49PM 28.5328 -79.7369 15° North 245 282 25,100 900 Climbing Miami Center
12:50PM 28.6061 -79.7175 13° North 257 296 26,000 960 Climbing Miami Center
12:51PM 28.6775 -79.6958 15° North 262 302 27,100 960 Climbing Miami Center
12:52PM 28.7511 -79.6717 16° North 262 302 28,000 900 Climbing Miami Center
12:53PM 28.8228 -79.6308 27° Northeast 262 302 29,000 840 Climbing Miami Center
12:54PM 28.8906 -79.5803 33° Northeast 274 315 29,700 660 Climbing Miami Center
12:55PM 28.9603 -79.5275 34° Northeast 287 330 30,400 840 Climbing Miami Center
12:56PM 29.0361 -79.4936 21° North 292 336 31,400 900 Climbing Miami Center
12:57PM 29.1094 -79.4764 12° North 282 325 32,200 720 Climbing Miami Center
12:58PM 29.1828 -79.4519 16° North 272 313 32,900 660 Climbing Miami Center
12:59PM 29.2583 -79.4325 13° North 272 313 33,600 660 Climbing Miami Center
01:00PM 29.3419 -79.4153 10° North 282 325 34,300 600 Climbing Miami Center
01:01PM 29.4133 -79.4003 10° North 277 319 34,900 600 Climbing Miami Center
01:02PM 29.4861 -79.4019 359° North 270 311 35,500 600 Climbing Miami Center
01:03PM 29.5592 -79.3964 North 265 305 36,100 480 Climbing Miami Center
01:05PM 29.7150 -79.3728 North 277 319 37,000 240 Climbing Jacksonville Center
01:06PM 29.8039 -79.3431 16° North 301 346 37,000  Level Jacksonville Center
01:07PM 29.8969 -79.3158 14° North 326 375 37,000  Level Jacksonville Center
01:08PM 29.9900 -79.2836 17° North 341 392 37,000  Level Jacksonville Center
01:09PM 30.0894 -79.2558 14° North 346 398 37,000  Level Jacksonville Center
01:10PM 30.1844 -79.2233 16° North 359 413 37,000  Level Jacksonville Center
01:11PM 30.2817 -79.1956 14° North 353 406 37,000  Level Jacksonville Center
01:12PM 30.3811 -79.1631 16° North 360 414 37,000  Level Jacksonville Center
01:13PM 30.4886 -79.1275 16° North 367 422 37,000  Level Jacksonville Center
01:14PM 30.5983 -79.0967 14° North 378 435 37,000  Level Jacksonville Center
01:15PM 30.6956 -79.0661 15° North 365 420 37,000  Level Jacksonville Center
01:16PM 30.8031 -79.0350 14° North 383 441 37,000  Level Jacksonville Center
01:17PM 30.9044 -79.0019 16° North 378 435 37,000  Level Jacksonville Center
01:18PM 31.0078 -78.9686 15° North 371 427 37,000  Level Jacksonville Center
01:19PM 31.1069 -78.9403 14° North 371 427 37,000  Level Jacksonville Center
01:20PM 31.2125 -78.9042 16° North 377 434 37,000  Level Jacksonville Center
01:21PM 31.3178 -78.8731 14° North 377 434 37,000  Level Jacksonville Center
01:22PM 31.4253 -78.8367 16° North 383 441 37,000  Level Jacksonville Center
01:23PM 31.5306 -78.8028 15° North 383 441 37,000  Level Jacksonville Center
01:24PM 31.6319 -78.7717 15° North 388 447 37,000  Level Jacksonville Center
01:25PM 31.7414 -78.7350 16° North 388 447 37,000  Level Jacksonville Center
01:26PM 31.8425 -78.7036 15° North 388 447 37,000  Level Jacksonville Center
01:27PM 31.9458 -78.6694 16° North 388 447 37,000  Level Jacksonville Center
01:28PM 32.0511 -78.6353 15° North 388 447 37,000  Level Jacksonville Center
01:29PM 32.1544 -78.6008 16° North 388 447 37,000  Level Jacksonville Center
01:30PM 32.2578 -78.5692 15° North 388 447 37,000  Level Jacksonville Center
01:31PM 32.3403 -78.5431 15° North 382 440 37,000  Level Jacksonville Center
01:32PM 32.4639 -78.4978 17° North 376 433 37,000  Level Jacksonville Center
01:33PM 32.5650 -78.4633 16° North 376 433 37,000  Level Jacksonville Center
01:34PM 32.6703 -78.4333 13° North 376 433 37,000  Level Jacksonville Center
01:35PM 32.7736 -78.3986 16° North 376 433 37,000  Level Jacksonville Center
01:36PM 32.8789 -78.3664 14° North 376 433 37,000  Level Jacksonville Center
01:37PM 32.9839 -78.3289 17° North 376 433 37,000  Level Jacksonville Center
01:38PM 33.0892 -78.2961 15° North 376 433 37,000  Level Jacksonville Center
01:39PM 33.1922 -78.2586 17° North 376 433 37,000  Level Jacksonville Center
01:40PM 33.2975 -78.2283 14° North 381 438 37,000  Level Jacksonville Center
01:42PM 33.5061 -78.1567 16° North 382 440 37,000  Level Washington Center
01:43PM 33.6047 -78.1247 15° North 382 440 37,000  Level Washington Center
01:44PM 33.7097 -78.0906 15° North 382 440 37,000  Level Washington Center
01:45PM 33.8106 -78.0586 15° North 377 434 37,000  Level Washington Center
01:46PM 33.8967 -78.0286 16° North 377 434 37,000  Level Washington Center
01:47PM 34.0100 -77.9919 15° North 382 440 37,000  Level Washington Center
01:48PM 34.1106 -77.9822 North 371 427 37,000  Level Washington Center
01:49PM 34.2083 -77.9825 360° North 359 413 37,000  Level Washington Center
01:50PM 34.3106 -77.9831 360° North 359 413 37,000  Level Washington Center
01:51PM 34.4069 -77.9733 North 359 413 37,000  Level Washington Center
01:52PM 34.5092 -77.9711 North 359 413 37,000  Level Washington Center
01:53PM 34.6072 -77.9689 North 353 406 37,000  Level Washington Center
01:54PM 34.7053 -77.9642 North 353 406 37,000  Level Washington Center
01:55PM 34.8036 -77.9594 North 347 399 37,000  Level Washington Center
01:56PM 34.9058 -77.9525 North 347 399 37,000  Level Washington Center
01:57PM 34.9958 -77.9475 North 347 399 37,000  Level Washington Center
01:58PM 35.0939 -77.9400 North 347 399 37,000  Level Washington Center
01:59PM 35.1900 -77.9378 North 347 399 37,000  Level Washington Center
02:00PM 35.2861 -77.9331 North 347 399 37,000  Level Washington Center
02:01PM 35.3822 -77.9308 North 347 399 37,000  Level Washington Center
02:02PM 35.4781 -77.9258 North 347 399 37,000  Level Washington Center
02:03PM 35.5764 -77.9211 North 347 399 37,000  Level Washington Center
02:04PM 35.6744 -77.9161 North 347 399 37,000  Level Washington Center
02:05PM 35.7747 -77.9114 North 347 399 37,000  Level Washington Center
02:06PM 35.8731 -77.8914 North 347 399 37,000  Level Washington Center
02:07PM 35.9722 -77.8481 19° North 352 405 37,000  Level Washington Center
02:08PM 36.0750 -77.8072 18° North 365 420 37,000  Level Washington Center
02:09PM 36.1758 -77.7689 17° North 365 420 37,000  Level Washington Center
02:10PM 36.2789 -77.7306 17° North 371 427 37,000  Level Washington Center
02:11PM 36.3797 -77.6894 18° North 376 433 37,000  Level Washington Center
02:12PM 36.4847 -77.6458 18° North 371 427 37,000  Level Washington Center
02:13PM 36.5856 -77.6069 17° North 371 427 37,000 -240 Level Washington Center
02:14PM 36.6800 -77.5706 17° North 376 433 36,600 -480 Descending Washington Center
02:15PM 36.7850 -77.5292 18° North 382 440 36,100 -360 Descending Washington Center
02:16PM 36.8900 -77.4850 19° North 387 445 36,000 -60 Descending Washington Center
02:17PM 36.9950 -77.4433 18° North 387 445 36,000  Level Washington Center
02:18PM 37.0981 -77.4017 18° North 382 440 36,000  Level Washington Center
02:19PM 37.1986 -77.3622 17° North 382 440 36,000  Level Washington Center
02:20PM 37.2994 -77.3203 18° North 382 440 36,000  Level Washington Center
02:21PM 37.4022 -77.2808 17° North 382 440 36,000  Level Washington Center
02:22PM 37.5133 -77.2361 18° North 382 440 36,000  Level Washington Center
02:23PM 37.6139 -77.1964 17° North 382 440 36,000  Level Washington Center
02:24PM 37.7147 -77.1511 20° North 382 440 36,000  Level Washington Center
02:25PM 37.8194 -77.1086 18° North 382 440 36,000  Level Washington Center
02:26PM 37.9222 -77.0686 17° North 382 440 36,000  Level Washington Center
02:27PM 38.0269 -77.0258 18° North 382 440 36,000  Level Washington Center
02:28PM 38.1317 -76.9828 18° North 382 440 36,000  Level Washington Center
02:29PM 38.2261 -76.9422 19° North 389 448 36,000 -420 Level Washington Center
02:30PM 38.3306 -76.9256 North 376 433 35,200 -840 Descending Washington Center
02:31PM 38.4411 -76.9197 North 376 433 34,400 -960 Descending Washington Center
02:32PM 38.5497 -76.9083 North 381 438 33,400 -960 Descending Washington Center
02:33PM 38.6583 -76.8944 North 391 450 32,500 -1,080 Descending Washington Center
02:34PM 38.7669 -76.8775 North 391 450 31,300 -1,260 Descending Washington Center
02:35PM 38.8775 -76.8583 North 391 450 30,000 -1,320 Descending Washington Center
02:36PM 38.9519 -76.7233 55° Northeast 396 456 28,700 -1,380 Descending Washington Center
02:37PM 39.0117 -76.5639 64° Northeast 439 505 27,300 -1,380 Descending Washington Center
02:38PM 39.0814 -76.4125 59° Northeast 444 511 26,000 -1,740 Descending Washington Center
02:39PM 39.1408 -76.2472 65° Northeast 474 545 23,900 -1,020 Descending Washington Center
02:40PM 39.2311 -76.1356 44° Northeast 460 529 24,000 -420 Climbing Washington Center
02:41PM 39.3272 -76.0317 40° Northeast 448 516 23,100 -1,500 Descending Washington Center
02:42PM 39.4275 -75.9408 35° Northeast 443 510 21,100 -2,100 Descending Washington Center
02:45PM 39.6500 -75.7333 36° Northeast 387 445 16,000 -2,040 Descending Philadelphia TRACON
02:46PM 39.7333 -75.6667 32° Northeast 393 452 14,400 -1,620 Descending Philadelphia TRACON
02:47PM 39.8167 -75.5833 38° Northeast 384 442 13,000 -720 Descending Philadelphia TRACON
02:48PM 39.9000 -75.5000 37° Northeast 383 441 13,000 -480 Level Philadelphia TRACON
02:49PM 40.0000 -75.4167 33° Northeast 347 399 12,100 -480 Descending Philadelphia TRACON
02:50PM 40.0667 -75.3500 37° Northeast 348 400 12,100  Level Philadelphia TRACON
02:51PM 40.1500 -75.2667 37° Northeast 346 398 12,100 -420 Level Philadelphia TRACON
02:53PM 40.3000 -75.1333 34° Northeast 334 384 10,900 -540 Descending New York TRACON
02:54PM 40.3667 -75.0500 44° Northeast 305 351 10,600 -960 Descending New York TRACON
02:55PM 40.4167 -74.9667 52° Northeast 313 360 9,000 -1,620 Descending New York TRACON
02:56PM 40.4667 -74.9000 45° Northeast 280 322 7,400 -1,500 Descending New York TRACON
02:57PM 40.5333 -74.8167 44° Northeast 289 333 6,000 -1,740 Descending New York TRACON
02:58PM 40.5833 -74.7500 45° Northeast 268 308 4,000 -1,080 Descending New York TRACON
02:59PM 40.6333 -74.6833 45° Northeast 239 275 3,900 -60 Descending New York TRACON
03:00PM 40.6833 -74.6500 27° Northeast 235 270 3,900 -540 Level New York TRACON
03:01PM 40.7333 -74.5833 45° Northeast 252 290 2,900 -540 Descending New York TRACON
03:02PM 40.7667 -74.5000 62° Northeast 239 275 2,900  Level New York TRACON
03:02PM 40.8000 -74.4500 49° Northeast 230 265 3,000 -360 Climbing New York TRACON
03:03PM 40.8333 -74.3833 57° Northeast 217 250 2,300 -720 Descending New York TRACON
03:05PM 40.8667 -74.3167 57° Northeast 204 235 1,500 -540 Descending New York TRACON
03:06PM 40.9000 -74.2833 37° Northeast 144 166 1,200 -180 Descending New York TRACON
03:07PM 40.9167 -74.2500 57° Northeast 133 153 1,200  Level New York TRACON